Terminal Aerodrome Forecast
Issued by NWS

Current Version | Previous Version | Text Only | Print | Product List | Glossary On
Versions: 1 2 3 4 5 6 7 8 9 10 11 12 13 14 15 16 17 18 19 20 21 22 23 24 25 26 27 28 29
000
FTUS41 KOKX 011933 AAA
TAFSWF
TAF AMD
KSWF 011933Z 0120/0224 21012KT P6SM BKN030
     FM012100 22021G32KT 5SM -SHRA BKN035
     FM020600 27023G35KT P6SM SCT035
     FM021600 29025G40KT P6SM BKN045
      AMD NOT SKED=

USA.gov is the U.S. government's official web portal to all federal, state and local government web resources and services.